createdAt,value
2017-11-07T00:00:04.454Z,0
2017-11-07T00:01:05.190Z,0
2017-11-07T00:02:05.963Z,0
2017-11-07T00:03:06.685Z,0
2017-11-07T00:04:07.473Z,0
2017-11-07T00:05:08.194Z,0
2017-11-07T00:06:08.994Z,0
2017-11-07T00:07:09.716Z,0
2017-11-07T00:08:10.473Z,0
2017-11-07T00:09:11.278Z,0
2017-11-07T00:10:12.077Z,0
2017-11-07T00:11:12.788Z,0
2017-11-07T00:12:13.609Z,0
2017-11-07T00:13:14.404Z,0
2017-11-07T00:14:15.194Z,0
2017-11-07T00:15:15.998Z,0
2017-11-07T00:16:16.722Z,0
2017-11-07T00:17:17.498Z,0
2017-11-07T00:18:18.233Z,0
2017-11-07T00:19:18.982Z,0
2017-11-07T00:20:19.695Z,0
2017-11-07T00:21:20.438Z,0
2017-11-07T00:22:21.212Z,0
2017-11-07T00:23:21.929Z,0
2017-11-07T00:24:22.651Z,0
2017-11-07T00:25:23.414Z,0
2017-11-07T00:26:24.214Z,0
2017-11-07T00:27:25.002Z,0
2017-11-07T00:28:25.712Z,0
2017-11-07T00:29:26.480Z,0
2017-11-07T00:30:27.214Z,0
2017-11-07T00:31:27.930Z,0
2017-11-07T00:32:28.757Z,0
2017-11-07T00:33:29.479Z,0
2017-11-07T00:34:30.199Z,0
2017-11-07T00:35:30.920Z,0
2017-11-07T00:36:31.714Z,0
2017-11-07T00:37:32.482Z,0
2017-11-07T00:38:33.196Z,0
2017-11-07T00:39:33.990Z,0
2017-11-07T00:40:34.791Z,0
2017-11-07T00:41:35.564Z,0
2017-11-07T00:42:36.341Z,0
2017-11-07T00:43:37.537Z,0
2017-11-07T00:44:38.312Z,0
2017-11-07T00:45:39.028Z,0
2017-11-07T00:46:39.746Z,0
2017-11-07T00:47:40.484Z,0
2017-11-07T00:48:41.222Z,0
2017-11-07T00:49:42.003Z,0
2017-11-07T00:50:42.719Z,0
2017-11-07T00:51:43.442Z,0
2017-11-07T00:52:44.245Z,0
2017-11-07T00:53:45.013Z,0
2017-11-07T00:54:45.752Z,0
2017-11-07T00:55:46.552Z,0
2017-11-07T00:56:47.347Z,0
2017-11-07T00:57:48.069Z,0
2017-11-07T00:58:49.094Z,0
2017-11-07T00:59:49.813Z,0
2017-11-07T01:00:50.541Z,0
2017-11-07T01:01:51.366Z,0
2017-11-07T01:02:52.129Z,0
2017-11-07T01:03:52.919Z,0
2017-11-07T01:04:53.643Z,0
2017-11-07T01:05:54.365Z,0
2017-11-07T01:06:55.098Z,0
2017-11-07T01:07:55.873Z,0
2017-11-07T01:08:56.635Z,0
2017-11-07T01:09:57.349Z,0
2017-11-07T01:10:58.081Z,0
2017-11-07T01:11:58.898Z,0
2017-11-07T01:12:59.617Z,0
2017-11-07T01:14:00.396Z,0
2017-11-07T01:15:01.141Z,0
2017-11-07T01:16:01.932Z,0
2017-11-07T01:17:02.700Z,0
2017-11-07T01:18:03.479Z,0
2017-11-07T01:19:04.193Z,0
2017-11-07T01:20:04.919Z,0
2017-11-07T01:21:05.651Z,0
2017-11-07T01:22:06.378Z,0
2017-11-07T01:23:07.102Z,0
2017-11-07T01:24:07.874Z,0
2017-11-07T01:25:08.602Z,0
2017-11-07T01:26:09.332Z,0
2017-11-07T01:27:10.129Z,0
2017-11-07T01:28:10.939Z,0
2017-11-07T01:29:11.763Z,0
2017-11-07T01:30:12.497Z,0
2017-11-07T01:31:13.260Z,0
2017-11-07T01:32:13.983Z,0
2017-11-07T01:33:14.762Z,0
2017-11-07T01:34:15.579Z,0
2017-11-07T01:35:16.290Z,0
2017-11-07T01:36:17.003Z,0
2017-11-07T01:37:17.729Z,0
2017-11-07T01:38:18.449Z,0
2017-11-07T01:39:19.337Z,0
2017-11-07T01:40:20.050Z,0
2017-11-07T01:41:20.769Z,0
2017-11-07T01:42:21.504Z,0
2017-11-07T01:43:22.315Z,0
2017-11-07T01:44:23.483Z,0
2017-11-07T01:45:24.208Z,0
2017-11-07T01:46:24.929Z,0
2017-11-07T01:47:25.653Z,0
2017-11-07T01:48:26.413Z,0
2017-11-07T01:49:27.233Z,0
2017-11-07T01:50:27.945Z,0
2017-11-07T01:51:28.667Z,0
2017-11-07T01:52:29.390Z,0
2017-11-07T01:53:30.181Z,0
2017-11-07T01:54:31.304Z,0
2017-11-07T01:55:32.094Z,0
2017-11-07T01:56:32.891Z,0
2017-11-07T01:57:33.662Z,0
2017-11-07T01:58:34.382Z,0
2017-11-07T01:59:35.164Z,0
2017-11-07T02:00:35.962Z,0
2017-11-07T02:01:36.699Z,0
2017-11-07T02:02:37.478Z,0
2017-11-07T02:03:38.214Z,0
2017-11-07T02:04:39.043Z,0
2017-11-07T02:05:39.763Z,0
2017-11-07T02:06:40.564Z,0
2017-11-07T02:07:41.354Z,0
2017-11-07T02:08:42.128Z,0
2017-11-07T02:09:42.849Z,0
2017-11-07T02:10:43.560Z,0
2017-11-07T02:11:44.282Z,0
2017-11-07T02:12:45.023Z,0
2017-11-07T02:13:45.815Z,0
2017-11-07T02:14:46.898Z,0
2017-11-07T02:15:47.668Z,0
2017-11-07T02:16:48.403Z,0
2017-11-07T02:17:49.126Z,0
2017-11-07T02:18:49.841Z,0
2017-11-07T02:19:50.611Z,0
2017-11-07T02:20:51.377Z,0
2017-11-07T02:21:52.160Z,0
2017-11-07T02:22:52.882Z,0
2017-11-07T02:23:53.602Z,0
2017-11-07T02:24:54.378Z,0
2017-11-07T02:25:55.099Z,0
2017-11-07T02:26:55.826Z,0
2017-11-07T02:27:56.612Z,0
2017-11-07T02:28:57.338Z,0
2017-11-07T02:29:58.159Z,0
2017-11-07T02:30:58.897Z,0
2017-11-07T02:31:59.679Z,0
2017-11-07T02:33:00.399Z,0
2017-11-07T02:34:01.121Z,0
2017-11-07T02:35:01.913Z,0
2017-11-07T02:36:02.630Z,0
2017-11-07T02:37:03.346Z,0
2017-11-07T02:38:04.071Z,0
2017-11-07T02:39:04.876Z,0
2017-11-07T02:40:05.643Z,0
2017-11-07T02:41:06.360Z,0
2017-11-07T02:42:07.084Z,0
2017-11-07T02:43:07.804Z,0
2017-11-07T02:44:08.547Z,0
2017-11-07T02:45:09.338Z,0
2017-11-07T02:46:10.096Z,0
2017-11-07T02:47:10.850Z,0
2017-11-07T02:48:11.577Z,0
2017-11-07T02:49:12.371Z,0
2017-11-07T02:50:13.142Z,0
2017-11-07T02:51:13.929Z,0
2017-11-07T02:52:14.663Z,0
2017-11-07T02:53:15.393Z,0
2017-11-07T02:54:16.119Z,0
2017-11-07T02:55:16.978Z,0
2017-11-07T02:56:17.769Z,0
2017-11-07T02:57:18.490Z,0
2017-11-07T02:58:19.201Z,0
2017-11-07T02:59:19.921Z,0
2017-11-07T03:00:20.802Z,0
2017-11-07T03:01:21.561Z,0
2017-11-07T03:02:22.273Z,0
2017-11-07T03:03:22.989Z,0
2017-11-07T03:04:23.712Z,0
2017-11-07T03:05:24.434Z,0
2017-11-07T03:06:25.231Z,0
2017-11-07T03:07:25.994Z,0
2017-11-07T03:08:26.703Z,0
2017-11-07T03:09:27.420Z,0
2017-11-07T03:10:28.199Z,0
2017-11-07T03:11:28.924Z,0
2017-11-07T03:12:29.716Z,0
2017-11-07T03:13:30.448Z,0
2017-11-07T03:14:31.184Z,0
2017-11-07T03:15:32.023Z,0
2017-11-07T03:16:32.743Z,0
2017-11-07T03:17:33.476Z,0
2017-11-07T03:18:34.199Z,0
2017-11-07T03:19:34.915Z,0
2017-11-07T03:20:35.732Z,0
2017-11-07T03:21:36.449Z,0
2017-11-07T03:22:37.183Z,0
2017-11-07T03:23:37.966Z,0
2017-11-07T03:24:38.688Z,0
2017-11-07T03:25:39.468Z,0
2017-11-07T03:26:40.274Z,0
2017-11-07T03:27:41.050Z,0
2017-11-07T03:28:41.782Z,0
2017-11-07T03:29:42.513Z,0
2017-11-07T03:30:43.281Z,0
2017-11-07T03:31:44.012Z,0
2017-11-07T03:32:44.736Z,0
2017-11-07T03:33:45.519Z,0
2017-11-07T03:34:46.244Z,0
2017-11-07T03:35:46.965Z,0
2017-11-07T03:36:47.771Z,0
2017-11-07T03:37:48.489Z,0
2017-11-07T03:38:49.230Z,0
2017-11-07T03:39:49.937Z,0
2017-11-07T03:40:50.717Z,0
2017-11-07T03:41:51.493Z,0
2017-11-07T03:42:52.218Z,0
2017-11-07T03:43:52.942Z,0
2017-11-07T03:44:53.658Z,0
2017-11-07T03:45:54.383Z,0
2017-11-07T03:46:55.248Z,0
2017-11-07T03:47:56.039Z,0
2017-11-07T03:48:56.752Z,0
2017-11-07T03:49:57.478Z,0
2017-11-07T03:50:58.214Z,0
2017-11-07T03:51:59.039Z,0
2017-11-07T03:52:59.773Z,0
2017-11-07T03:54:00.513Z,0
2017-11-07T03:55:01.237Z,0
2017-11-07T03:56:01.965Z,0
2017-11-07T03:57:02.801Z,0
2017-11-07T03:58:03.585Z,0
2017-11-07T03:59:04.301Z,0
2017-11-07T04:00:05.039Z,0
2017-11-07T04:01:05.806Z,0
2017-11-07T04:02:06.613Z,0
2017-11-07T04:03:07.398Z,0
2017-11-07T04:04:08.120Z,0
2017-11-07T04:05:08.922Z,0
2017-11-07T04:06:09.719Z,0
2017-11-07T04:07:10.504Z,0
2017-11-07T04:08:11.303Z,0
2017-11-07T04:09:12.032Z,0
2017-11-07T04:10:12.762Z,0
2017-11-07T04:11:13.489Z,0
2017-11-07T04:12:14.688Z,0
2017-11-07T04:13:15.412Z,0
2017-11-07T04:14:16.175Z,0
2017-11-07T04:15:16.962Z,0
2017-11-07T04:16:17.700Z,0
2017-11-07T04:17:18.445Z,0
2017-11-07T04:18:19.211Z,0
2017-11-07T04:19:19.993Z,0
2017-11-07T04:20:20.749Z,0
2017-11-07T04:21:21.459Z,0
2017-11-07T04:22:22.182Z,0
2017-11-07T04:23:22.897Z,0
2017-11-07T04:24:23.725Z,0
2017-11-07T04:25:24.516Z,0
2017-11-07T04:26:25.238Z,0
2017-11-07T04:27:25.972Z,0
2017-11-07T04:28:26.701Z,0
2017-11-07T04:29:27.514Z,0
2017-11-07T04:30:28.313Z,0
2017-11-07T04:31:29.035Z,0
2017-11-07T04:32:29.822Z,0
2017-11-07T04:33:30.548Z,0
2017-11-07T04:34:31.380Z,0
2017-11-07T04:35:32.106Z,0
2017-11-07T04:36:32.837Z,0
2017-11-07T04:37:33.568Z,0
2017-11-07T04:38:34.293Z,0
2017-11-07T04:39:35.118Z,0
2017-11-07T04:40:35.837Z,0
2017-11-07T04:41:36.566Z,0
2017-11-07T04:42:37.300Z,0
2017-11-07T04:43:38.079Z,0
2017-11-07T04:44:38.803Z,0
2017-11-07T04:45:39.566Z,0
2017-11-07T04:46:40.278Z,0
2017-11-07T04:47:40.999Z,0
2017-11-07T04:48:41.732Z,0
2017-11-07T04:49:42.454Z,0
2017-11-07T04:50:43.184Z,0
2017-11-07T04:51:43.963Z,0
2017-11-07T04:52:44.766Z,0
2017-11-07T04:53:45.890Z,0
2017-11-07T04:54:46.623Z,0
2017-11-07T04:55:47.409Z,0
2017-11-07T04:56:48.143Z,0
2017-11-07T04:57:48.873Z,0
2017-11-07T04:58:49.639Z,0
2017-11-07T04:59:50.446Z,0
2017-11-07T05:00:51.162Z,0
2017-11-07T05:01:51.888Z,0
2017-11-07T05:02:52.686Z,0
2017-11-07T05:03:53.504Z,0
2017-11-07T05:04:54.224Z,0
2017-11-07T05:05:54.979Z,0
2017-11-07T05:06:55.697Z,0
2017-11-07T05:07:56.482Z,0
2017-11-07T05:08:57.263Z,0
2017-11-07T05:09:57.981Z,0
2017-11-07T05:10:58.700Z,0
2017-11-07T05:11:59.421Z,0
2017-11-07T05:13:00.147Z,0
2017-11-07T05:14:01.259Z,0
2017-11-07T05:15:01.974Z,0
2017-11-07T05:16:02.777Z,0
2017-11-07T05:17:03.558Z,0
2017-11-07T05:18:04.362Z,0
2017-11-07T05:19:05.145Z,0
2017-11-07T05:20:05.835Z,0
2017-11-07T05:21:06.606Z,0
2017-11-07T05:22:07.343Z,0
2017-11-07T05:23:08.051Z,0
2017-11-07T05:24:09.291Z,0
2017-11-07T05:25:10.053Z,0
2017-11-07T05:26:10.760Z,0
2017-11-07T05:27:11.496Z,0
2017-11-07T05:28:12.218Z,0
2017-11-07T05:29:13.341Z,0
2017-11-07T05:30:14.126Z,0
2017-11-07T05:31:14.865Z,0
2017-11-07T05:32:15.670Z,0
2017-11-07T05:33:16.443Z,0
2017-11-07T05:34:17.149Z,0
2017-11-07T05:35:17.860Z,0
2017-11-07T05:36:18.592Z,0
2017-11-07T05:37:19.387Z,0
2017-11-07T05:38:20.102Z,0
2017-11-07T05:39:20.923Z,0
2017-11-07T05:40:21.647Z,0
2017-11-07T05:41:22.447Z,0
2017-11-07T05:42:23.214Z,0
2017-11-07T05:43:23.931Z,0
2017-11-07T05:44:24.699Z,0
2017-11-07T05:45:25.431Z,0
2017-11-07T05:46:26.143Z,0
2017-11-07T05:47:26.922Z,0
2017-11-07T05:48:27.645Z,0
2017-11-07T05:49:28.466Z,0
2017-11-07T05:50:29.187Z,0
2017-11-07T05:51:29.915Z,0
2017-11-07T05:52:30.631Z,0
2017-11-07T05:53:31.356Z,0
2017-11-07T05:54:32.476Z,0
2017-11-07T05:55:33.271Z,0
2017-11-07T05:56:34.081Z,0
2017-11-07T05:57:34.873Z,0
2017-11-07T05:58:35.661Z,0
2017-11-07T05:59:36.452Z,0
2017-11-07T06:00:37.178Z,0
2017-11-07T06:01:37.956Z,0
2017-11-07T06:02:38.669Z,0
2017-11-07T06:03:39.387Z,0
2017-11-07T06:04:40.108Z,0
2017-11-07T06:05:40.832Z,0
2017-11-07T06:06:41.648Z,0
2017-11-07T06:07:42.373Z,0
2017-11-07T06:08:43.162Z,0
2017-11-07T06:09:43.881Z,0
2017-11-07T06:10:44.609Z,0
2017-11-07T06:11:45.442Z,0
2017-11-07T06:12:46.170Z,0
2017-11-07T06:13:46.890Z,0
2017-11-07T06:14:47.692Z,0
2017-11-07T06:15:48.357Z,0
2017-11-07T06:16:49.142Z,0
2017-11-07T06:17:49.841Z,0
2017-11-07T06:18:50.608Z,0
2017-11-07T06:19:51.372Z,0
2017-11-07T06:20:52.096Z,5
2017-11-07T06:21:52.839Z,5
2017-11-07T06:22:53.622Z,5
2017-11-07T06:23:54.338Z,5
2017-11-07T06:24:55.072Z,5
2017-11-07T06:25:55.805Z,5
2017-11-07T06:26:56.592Z,11
2017-11-07T06:27:57.319Z,11
2017-11-07T06:28:58.041Z,11
2017-11-07T06:29:58.772Z,11
2017-11-07T06:30:59.499Z,16
2017-11-07T06:32:00.228Z,16
2017-11-07T06:33:00.947Z,16
2017-11-07T06:34:01.663Z,16
2017-11-07T06:35:02.460Z,22
2017-11-07T06:36:03.222Z,22
2017-11-07T06:37:03.954Z,22
2017-11-07T06:38:04.713Z,28
2017-11-07T06:39:05.429Z,28
2017-11-07T06:40:06.167Z,28
2017-11-07T06:41:06.959Z,33
2017-11-07T06:42:07.790Z,33
2017-11-07T06:43:08.603Z,33
2017-11-07T06:44:09.327Z,33
2017-11-07T06:45:10.066Z,33
2017-11-07T06:46:10.862Z,39
2017-11-07T06:47:11.642Z,39
2017-11-07T06:48:12.673Z,45
2017-11-07T06:49:13.470Z,45
2017-11-07T06:50:14.262Z,50
2017-11-07T06:51:15.009Z,50
2017-11-07T06:52:15.796Z,56
2017-11-07T06:53:16.533Z,56
2017-11-07T06:54:17.266Z,56
2017-11-07T06:55:18.058Z,56
2017-11-07T06:56:18.781Z,61
2017-11-07T06:57:19.529Z,67
2017-11-07T06:58:20.433Z,73
2017-11-07T06:59:21.189Z,73
2017-11-07T07:00:21.940Z,67
2017-11-07T07:01:22.637Z,73
2017-11-07T07:02:23.442Z,78
2017-11-07T07:03:24.240Z,90
2017-11-07T07:04:25.043Z,90
2017-11-07T07:05:25.837Z,90
2017-11-07T07:06:26.609Z,101
2017-11-07T07:07:27.342Z,95
2017-11-07T07:08:28.128Z,101
2017-11-07T07:09:28.864Z,101
2017-11-07T07:10:29.652Z,106
2017-11-07T07:11:30.381Z,112
2017-11-07T07:12:31.114Z,106
2017-11-07T07:13:32.272Z,106
2017-11-07T07:14:33.067Z,118
2017-11-07T07:15:33.862Z,106
2017-11-07T07:16:34.616Z,106
2017-11-07T07:17:35.324Z,106
2017-11-07T07:18:36.442Z,106
2017-11-07T07:19:37.174Z,118
2017-11-07T07:20:37.891Z,112
2017-11-07T07:21:38.625Z,112
2017-11-07T07:22:39.410Z,106
2017-11-07T07:23:40.488Z,101
2017-11-07T07:24:41.211Z,101
2017-11-07T07:25:41.943Z,112
2017-11-07T07:26:42.671Z,118
2017-11-07T07:27:43.438Z,106
2017-11-07T07:28:44.238Z,106
2017-11-07T07:29:44.974Z,106
2017-11-07T07:30:45.731Z,112
2017-11-07T07:31:46.467Z,112
2017-11-07T07:32:47.203Z,106
2017-11-07T07:33:47.982Z,101
2017-11-07T07:34:48.721Z,106
2017-11-07T07:35:49.449Z,101
2017-11-07T07:36:50.171Z,112
2017-11-07T07:37:50.968Z,129
2017-11-07T07:38:51.806Z,123
2017-11-07T07:39:52.529Z,140
2017-11-07T07:40:53.257Z,157
2017-11-07T07:41:53.987Z,163
2017-11-07T07:42:54.710Z,146
2017-11-07T07:43:55.492Z,157
2017-11-07T07:44:56.216Z,163
2017-11-07T07:45:56.947Z,174
2017-11-07T07:46:57.681Z,185
2017-11-07T07:47:58.414Z,225
2017-11-07T07:48:59.252Z,202
2017-11-07T07:49:59.967Z,219
2017-11-07T07:51:00.702Z,219
2017-11-07T07:52:01.429Z,202
2017-11-07T07:53:02.227Z,208
2017-11-07T07:54:03.018Z,202
2017-11-07T07:55:03.802Z,236
2017-11-07T07:56:04.541Z,208
2017-11-07T07:57:05.272Z,208
2017-11-07T07:58:06.009Z,191
2017-11-07T07:59:06.742Z,174
2017-11-07T08:00:07.471Z,180
2017-11-07T08:01:08.296Z,174
2017-11-07T08:02:09.037Z,208
2017-11-07T08:03:09.792Z,230
2017-11-07T08:04:10.557Z,202
2017-11-07T08:05:11.278Z,191
2017-11-07T08:06:12.108Z,202
2017-11-07T08:07:12.906Z,208
2017-11-07T08:08:13.689Z,213
2017-11-07T08:09:14.477Z,241
2017-11-07T08:10:15.194Z,230
2017-11-07T08:11:16.017Z,236
2017-11-07T08:12:16.748Z,281
2017-11-07T08:13:17.478Z,270
2017-11-07T08:14:18.212Z,213
2017-11-07T08:15:18.982Z,241
2017-11-07T08:16:20.092Z,281
2017-11-07T08:17:20.823Z,213
2017-11-07T08:18:21.626Z,196
2017-11-07T08:19:22.445Z,202
2017-11-07T08:20:23.208Z,191
2017-11-07T08:21:23.923Z,185
2017-11-07T08:22:24.654Z,202
2017-11-07T08:23:25.528Z,225
2017-11-07T08:24:26.256Z,236
2017-11-07T08:25:26.987Z,247
2017-11-07T08:26:27.749Z,219
2017-11-07T08:27:28.547Z,225
2017-11-07T08:28:29.332Z,253
2017-11-07T08:29:30.131Z,264
2017-11-07T08:30:30.930Z,236
2017-11-07T08:31:31.663Z,213
2017-11-07T08:32:32.479Z,236
2017-11-07T08:33:33.282Z,236
2017-11-07T08:34:34.010Z,253
2017-11-07T08:35:34.739Z,225
2017-11-07T08:36:35.545Z,241
2017-11-07T08:37:36.273Z,225
2017-11-07T08:38:37.114Z,219
2017-11-07T08:39:37.857Z,219
2017-11-07T08:40:38.584Z,219
2017-11-07T08:41:39.352Z,236
2017-11-07T08:42:40.083Z,275
2017-11-07T08:43:40.909Z,275
2017-11-07T08:44:41.638Z,275
2017-11-07T08:45:42.367Z,298
2017-11-07T08:46:43.144Z,275
2017-11-07T08:47:43.877Z,264
2017-11-07T08:48:45.636Z,230
2017-11-07T08:49:47.642Z,247
2017-11-07T08:50:48.635Z,292
2017-11-07T08:51:49.337Z,253
2017-11-07T08:52:50.055Z,275
2017-11-07T08:53:50.889Z,275
2017-11-07T08:54:51.622Z,281
2017-11-07T08:55:52.338Z,281
2017-11-07T08:56:53.059Z,292
2017-11-07T08:57:53.778Z,315
2017-11-07T08:58:54.571Z,286
2017-11-07T08:59:55.289Z,270
2017-11-07T09:00:56.033Z,275
2017-11-07T09:01:56.813Z,292
2017-11-07T09:02:57.538Z,331
2017-11-07T09:03:58.270Z,303
2017-11-07T09:04:59.031Z,315
2017-11-07T09:05:59.820Z,309
2017-11-07T09:07:00.589Z,320
2017-11-07T09:08:01.735Z,343
2017-11-07T09:09:02.543Z,360
2017-11-07T09:10:03.244Z,303
2017-11-07T09:11:04.028Z,303
2017-11-07T09:12:04.813Z,320
2017-11-07T09:13:05.548Z,309
2017-11-07T09:14:06.290Z,298
2017-11-07T09:15:07.398Z,360
2017-11-07T09:16:08.244Z,354
2017-11-07T09:17:09.455Z,320
2017-11-07T09:18:10.187Z,309
2017-11-07T09:19:10.995Z,315
2017-11-07T09:20:11.710Z,331
2017-11-07T09:21:12.441Z,326
2017-11-07T09:22:13.261Z,337
2017-11-07T09:23:14.048Z,326
2017-11-07T09:24:14.789Z,360
2017-11-07T09:25:15.525Z,360
2017-11-07T09:26:16.286Z,337
2017-11-07T09:27:17.062Z,354
2017-11-07T09:28:17.792Z,354
2017-11-07T09:29:18.560Z,354
2017-11-07T09:30:19.368Z,360
2017-11-07T09:31:20.094Z,348
2017-11-07T09:32:20.829Z,343
2017-11-07T09:33:21.583Z,376
2017-11-07T09:34:22.372Z,371
2017-11-07T09:35:23.090Z,376
2017-11-07T09:36:23.890Z,388
2017-11-07T09:37:24.669Z,371
2017-11-07T09:38:25.396Z,382
2017-11-07T09:39:26.123Z,371
2017-11-07T09:40:26.858Z,360
2017-11-07T09:41:27.642Z,360
2017-11-07T09:42:28.393Z,360
2017-11-07T09:43:29.523Z,337
2017-11-07T09:44:30.251Z,337
2017-11-07T09:45:30.990Z,331
2017-11-07T09:46:31.785Z,348
2017-11-07T09:47:32.518Z,371
2017-11-07T09:48:33.654Z,427
2017-11-07T09:49:34.449Z,590
2017-11-07T09:50:35.178Z,669
2017-11-07T09:51:35.923Z,635
2017-11-07T09:52:36.653Z,596
2017-11-07T09:53:37.488Z,607
2017-11-07T09:54:38.223Z,658
2017-11-07T09:55:38.951Z,731
2017-11-07T09:56:39.679Z,759
2017-11-07T09:57:40.407Z,798
2017-11-07T09:58:42.153Z,922
2017-11-07T09:59:42.834Z,900
2017-11-07T10:00:43.618Z,815
2017-11-07T10:01:44.337Z,945
2017-11-07T10:02:45.062Z,781
2017-11-07T10:03:45.893Z,708
2017-11-07T10:04:46.655Z,680
2017-11-07T10:05:48.418Z,697
2017-11-07T10:06:49.458Z,556
2017-11-07T10:07:50.294Z,562
2017-11-07T10:08:51.202Z,691
2017-11-07T10:09:51.923Z,596
2017-11-07T10:10:52.940Z,590
2017-11-07T10:11:53.668Z,540
2017-11-07T10:12:54.428Z,433
2017-11-07T10:13:55.552Z,433
2017-11-07T10:14:56.283Z,444
2017-11-07T10:15:57.065Z,472
2017-11-07T10:16:57.859Z,478
2017-11-07T10:17:58.588Z,472
2017-11-07T10:18:59.759Z,444
2017-11-07T10:20:00.582Z,371
2017-11-07T10:21:01.311Z,393
2017-11-07T10:22:02.111Z,416
2017-11-07T10:23:02.842Z,556
2017-11-07T10:24:03.612Z,365
2017-11-07T10:25:04.343Z,433
2017-11-07T10:26:05.077Z,618
2017-11-07T10:27:05.813Z,568
2017-11-07T10:28:06.541Z,506
2017-11-07T10:29:07.382Z,433
2017-11-07T10:30:08.121Z,455
2017-11-07T10:31:08.843Z,478
2017-11-07T10:32:09.579Z,489
2017-11-07T10:33:10.392Z,466
2017-11-07T10:34:11.164Z,489
2017-11-07T10:35:11.977Z,568
2017-11-07T10:36:12.777Z,798
2017-11-07T10:37:13.588Z,967
2017-11-07T10:38:14.372Z,973
2017-11-07T10:39:15.212Z,984
2017-11-07T10:40:15.939Z,720
2017-11-07T10:41:16.733Z,1102
2017-11-07T10:42:17.453Z,1074
2017-11-07T10:43:18.187Z,1068
2017-11-07T10:44:18.994Z,956
2017-11-07T10:45:19.720Z,1035
2017-11-07T10:46:20.516Z,1035
2017-11-07T10:47:21.257Z,1023
2017-11-07T10:48:22.026Z,849
2017-11-07T10:49:22.743Z,1080
2017-11-07T10:50:23.538Z,753
2017-11-07T10:51:24.265Z,596
2017-11-07T10:52:25.037Z,686
2017-11-07T10:53:26.177Z,1215
2017-11-07T10:54:26.938Z,1113
2017-11-07T10:55:27.679Z,1040
2017-11-07T10:56:28.518Z,1012
2017-11-07T10:57:29.254Z,1023
2017-11-07T10:58:30.348Z,1130
2017-11-07T10:59:31.123Z,1035
2017-11-07T11:00:31.989Z,1113
2017-11-07T11:01:33.161Z,911
2017-11-07T11:02:34.231Z,961
2017-11-07T11:03:35.132Z,1001
2017-11-07T11:04:36.877Z,596
2017-11-07T11:05:37.892Z,399
2017-11-07T11:06:38.610Z,680
2017-11-07T11:07:39.402Z,883
2017-11-07T11:08:40.434Z,826
2017-11-07T11:09:41.514Z,736
2017-11-07T11:10:42.495Z,770
2017-11-07T11:11:43.231Z,658
2017-11-07T11:12:43.968Z,641
2017-11-07T11:13:44.804Z,781
2017-11-07T11:14:45.546Z,708
2017-11-07T11:15:46.265Z,680
2017-11-07T11:16:46.994Z,624
2017-11-07T11:17:47.751Z,562
2017-11-07T11:18:48.550Z,590
2017-11-07T11:19:49.351Z,613
2017-11-07T11:20:50.073Z,646
2017-11-07T11:21:50.803Z,562
2017-11-07T11:22:51.524Z,410
2017-11-07T11:23:52.678Z,551
2017-11-07T11:24:53.449Z,686
2017-11-07T11:25:54.195Z,562
2017-11-07T11:26:55.013Z,601
2017-11-07T11:27:55.750Z,607
2017-11-07T11:28:56.562Z,517
2017-11-07T11:29:57.334Z,466
2017-11-07T11:30:58.073Z,511
2017-11-07T11:31:58.808Z,585
2017-11-07T11:32:59.596Z,669
2017-11-07T11:34:00.380Z,450
2017-11-07T11:35:01.182Z,371
2017-11-07T11:36:01.971Z,348
2017-11-07T11:37:02.703Z,421
2017-11-07T11:38:03.437Z,495
2017-11-07T11:39:04.528Z,646
2017-11-07T11:40:05.312Z,720
2017-11-07T11:41:06.089Z,568
2017-11-07T11:42:06.824Z,720
2017-11-07T11:43:07.562Z,888
2017-11-07T11:44:08.695Z,900
2017-11-07T11:45:09.502Z,753
2017-11-07T11:46:10.237Z,826
2017-11-07T11:47:10.918Z,838
2017-11-07T11:48:11.693Z,843
2017-11-07T11:49:12.477Z,590
2017-11-07T11:50:13.226Z,478
2017-11-07T11:51:13.962Z,365
2017-11-07T11:52:14.728Z,489
2017-11-07T11:53:15.519Z,421
2017-11-07T11:54:16.300Z,568
2017-11-07T11:55:17.029Z,500
2017-11-07T11:56:17.787Z,523
2017-11-07T11:57:18.590Z,517
2017-11-07T11:58:19.389Z,618
2017-11-07T11:59:20.173Z,810
2017-11-07T12:00:20.894Z,815
2017-11-07T12:01:21.619Z,793
2017-11-07T12:02:22.452Z,810
2017-11-07T12:03:23.198Z,815
2017-11-07T12:04:24.345Z,776
2017-11-07T12:05:25.188Z,900
2017-11-07T12:06:25.920Z,776
2017-11-07T12:07:26.717Z,770
2017-11-07T12:08:27.526Z,781
2017-11-07T12:09:28.561Z,798
2017-11-07T12:10:29.369Z,686
2017-11-07T12:11:30.152Z,618
2017-11-07T12:12:30.886Z,556
2017-11-07T12:13:31.613Z,528
2017-11-07T12:14:32.356Z,495
2017-11-07T12:15:33.139Z,466
2017-11-07T12:16:33.873Z,450
2017-11-07T12:17:34.647Z,461
2017-11-07T12:18:35.379Z,478
2017-11-07T12:19:36.117Z,495
2017-11-07T12:20:36.920Z,506
2017-11-07T12:21:37.656Z,511
2017-11-07T12:22:38.490Z,517
2017-11-07T12:23:39.246Z,528
2017-11-07T12:24:39.973Z,540
2017-11-07T12:25:40.715Z,528
2017-11-07T12:26:41.514Z,523
2017-11-07T12:27:42.366Z,523
2017-11-07T12:28:43.109Z,523
2017-11-07T12:29:43.853Z,523
2017-11-07T12:30:44.634Z,528
2017-11-07T12:31:45.370Z,517
2017-11-07T12:32:46.461Z,511
2017-11-07T12:33:47.250Z,506
2017-11-07T12:34:47.990Z,495
2017-11-07T12:35:48.713Z,489
2017-11-07T12:36:49.498Z,483
2017-11-07T12:37:50.369Z,478
2017-11-07T12:38:51.126Z,478
2017-11-07T12:39:51.899Z,483
2017-11-07T12:40:52.623Z,495
2017-11-07T12:41:53.342Z,500
2017-11-07T12:42:54.173Z,500
2017-11-07T12:43:54.949Z,495
2017-11-07T12:44:55.683Z,489
2017-11-07T12:45:56.406Z,478
2017-11-07T12:46:57.576Z,478
2017-11-07T12:47:58.771Z,478
2017-11-07T12:48:59.601Z,483
2017-11-07T12:50:00.354Z,483
2017-11-07T12:51:01.148Z,472
2017-11-07T12:52:01.922Z,461
2017-11-07T12:53:02.833Z,450
2017-11-07T12:54:03.620Z,450
2017-11-07T12:55:04.432Z,450
2017-11-07T12:56:05.149Z,450
2017-11-07T12:57:05.927Z,450
2017-11-07T12:58:07.064Z,450
2017-11-07T12:59:07.853Z,450
2017-11-07T13:00:08.584Z,450
2017-11-07T13:01:09.312Z,450
2017-11-07T13:02:10.039Z,450
2017-11-07T13:03:11.087Z,450
2017-11-07T13:04:11.751Z,444
2017-11-07T13:05:12.566Z,444
2017-11-07T13:06:13.360Z,438
2017-11-07T13:07:14.076Z,438
2017-11-07T13:08:15.254Z,438
2017-11-07T13:09:16.019Z,438
2017-11-07T13:10:16.826Z,433
2017-11-07T13:11:17.582Z,421
2017-11-07T13:12:19.259Z,416
2017-11-07T13:13:20.333Z,410
2017-11-07T13:14:21.049Z,399
2017-11-07T13:15:21.781Z,393
2017-11-07T13:16:22.545Z,388
2017-11-07T13:17:23.256Z,382
2017-11-07T13:18:24.244Z,376
2017-11-07T13:19:25.541Z,371
2017-11-07T13:20:26.355Z,371
2017-11-07T13:21:27.074Z,365
2017-11-07T13:22:28.363Z,365
2017-11-07T13:23:29.034Z,360
2017-11-07T13:24:29.814Z,354
2017-11-07T13:25:30.601Z,331
2017-11-07T13:26:31.322Z,315
2017-11-07T13:27:32.101Z,315
2017-11-07T13:28:32.829Z,326
2017-11-07T13:29:33.642Z,337
2017-11-07T13:30:34.422Z,343
2017-11-07T13:31:35.108Z,348
2017-11-07T13:32:35.930Z,360
2017-11-07T13:33:36.664Z,354
2017-11-07T13:34:37.467Z,348
2017-11-07T13:35:38.263Z,348
2017-11-07T13:36:39.053Z,348
2017-11-07T13:37:39.884Z,337
2017-11-07T13:38:40.607Z,331
2017-11-07T13:39:41.333Z,331
2017-11-07T13:40:42.058Z,326
2017-11-07T13:41:42.847Z,326
2017-11-07T13:42:43.628Z,320
2017-11-07T13:43:44.361Z,309
2017-11-07T13:44:45.094Z,298
2017-11-07T13:45:45.888Z,281
2017-11-07T13:46:46.698Z,258
2017-11-07T13:47:47.471Z,241
2017-11-07T13:48:48.198Z,236
2017-11-07T13:49:48.934Z,213
2017-11-07T13:50:49.718Z,196
2017-11-07T13:51:50.500Z,213
2017-11-07T13:52:51.308Z,213
2017-11-07T13:53:52.036Z,208
2017-11-07T13:54:52.802Z,213
2017-11-07T13:55:53.532Z,208
2017-11-07T13:56:54.336Z,202
2017-11-07T13:57:55.172Z,191
2017-11-07T13:58:55.990Z,191
2017-11-07T13:59:56.796Z,185
2017-11-07T14:00:57.565Z,191
2017-11-07T14:01:58.279Z,191
2017-11-07T14:02:59.022Z,185
2017-11-07T14:03:59.809Z,185
2017-11-07T14:05:00.601Z,185
2017-11-07T14:06:01.359Z,180
2017-11-07T14:07:02.168Z,180
2017-11-07T14:08:03.066Z,174
2017-11-07T14:09:03.840Z,168
2017-11-07T14:10:04.579Z,163
2017-11-07T14:11:05.303Z,157
2017-11-07T14:12:06.074Z,146
2017-11-07T14:13:06.980Z,140
2017-11-07T14:14:07.754Z,146
2017-11-07T14:15:08.543Z,140
2017-11-07T14:16:09.341Z,140
2017-11-07T14:17:10.077Z,146
2017-11-07T14:18:10.972Z,157
2017-11-07T14:19:11.764Z,157
2017-11-07T14:20:12.497Z,157
2017-11-07T14:21:13.273Z,157
2017-11-07T14:22:14.139Z,151
2017-11-07T14:23:14.966Z,146
2017-11-07T14:24:15.706Z,146